Decoded Metar for KSGJ (ST AUGUSTINE in FL, USA) (IATA:SGJ) | Meteo·Mobile Aviation Weather
aviador You're here:

KSGJ Decoded Metar

ST AUGUSTINE in FL, USA
Report Time2018-10-17 17:56:00
UTC Time2018-10-17 18:30:04
Flight Rules vfr VFR
Wind120° at 11 kt
W.Decomp.*RWY 13: 10.9 kt HW 1.1 kt LCW
RWY 06: 4.8 kt HW 9.9 kt RCW
RWY 20: 2.7 kt HW 10.7 kt LCW
W.Rank120° ranks 18
Current wind is above 120° avg. (9.3)
Visibility9999 m
Phenomena:N/A
Clouds:N/A
Expected CloudBase > 2,800 ft AGL from Temp-Dew spread
CeilingNone
Temp31°C (ISA +16)
Dew Point24°C (66% RH)
Heat Index36.4°C
QNH1020 hPa
Density Alt1,998 ft
Elevation10 ft
Report Wrong Elevation
Raw Report
METAR KSGJ 171756Z 12011KT 10SM CLR 31/24 A3013 RMK AO2 SLP202 T03060244
10322 20239 58018=

Extra information for KSGJ:More info

Metar Taf Metar & Taf Last 4 Metars F.Rules Stats Wind Profile Meteogram Temp Stats Airport Information Weather charts Add Link Nearby VenuesMetar ALERT Operation Metar Decoded Social comments

AIRNAV info for KSGJ